Time;durP1;ratioP1;P1;durP2;ratioP2;P2;SDS_P1;SDS_P2;PMS_P1;PMS_P2;Temp;Humidity;BMP_temperature;BMP_pressure;BME280_temperature;BME280_humidity;BME280_pressure;Samples;Min_cycle;Max_cycle;Signal;HPM_P1;HPM_P2
2023/01/26 00:01:23;;;;;;;0.10;0.10;;;;;;;2.37;100.00;101693.03;4934469;29;20098;-70
2023/01/26 00:03:52;;;;;;;0.00;0.00;;;;;;;2.38;100.00;101698.25;4935072;29;20035;-70
2023/01/26 00:06:19;;;;;;;0.10;0.10;;;;;;;2.30;100.00;101702.88;4945483;28;20023;-73
2023/01/26 00:08:48;;;;;;;0.00;0.00;;;;;;;2.32;100.00;101706.22;4947741;28;20082;-72
2023/01/26 00:11:16;;;;;;;0.10;0.10;;;;;;;2.25;100.00;101701.53;4944452;29;20034;-72
2023/01/26 00:13:42;;;;;;;0.10;0.10;;;;;;;2.18;100.00;101697.06;4931675;29;20030;-73
2023/01/26 00:16:10;;;;;;;0.00;0.00;;;;;;;2.18;100.00;101689.78;4935748;29;20035;-73
2023/01/26 00:18:37;;;;;;;0.00;0.00;;;;;;;2.19;100.00;101707.66;4947667;28;20158;-72
2023/01/26 00:21:04;;;;;;;0.10;0.10;;;;;;;2.15;100.00;101709.03;4935278;29;20386;-72
2023/01/26 00:23:31;;;;;;;0.00;0.00;;;;;;;2.11;100.00;101696.91;4930994;28;20027;-73
2023/01/26 00:25:57;;;;;;;0.00;0.00;;;;;;;2.09;100.00;101707.06;4934774;29;20034;-72
2023/01/26 00:28:22;;;;;;;0.00;0.00;;;;;;;2.08;100.00;101699.97;4915770;29;20358;-72
2023/01/26 00:30:48;;;;;;;0.00;0.00;;;;;;;2.06;100.00;101700.16;4926865;29;20464;-70
2023/01/26 00:33:14;;;;;;;0.00;0.00;;;;;;;2.11;100.00;101705.00;4951091;28;20592;-72
2023/01/26 00:35:43;;;;;;;0.10;0.10;;;;;;;2.11;100.00;101710.41;4929716;28;21336;-71
2023/01/26 00:38:12;;;;;;;0.10;0.10;;;;;;;2.04;100.00;101701.34;4918433;29;20051;-70
2023/01/26 00:40:38;;;;;;;0.10;0.10;;;;;;;1.99;100.00;101701.06;4920948;29;20051;-71
2023/01/26 00:43:04;;;;;;;0.10;0.10;;;;;;;1.95;100.00;101699.72;4933303;29;20121;-71
2023/01/26 00:45:29;;;;;;;0.10;0.10;;;;;;;1.91;100.00;101705.47;4949024;29;20117;-72
2023/01/26 00:47:55;;;;;;;0.10;0.10;;;;;;;1.88;100.00;101691.50;4919698;29;20029;-72
2023/01/26 00:50:20;;;;;;;0.00;0.00;;;;;;;1.85;100.00;101687.28;4932985;29;20559;-72
2023/01/26 00:52:46;;;;;;;0.00;0.00;;;;;;;1.80;100.00;101691.56;4928244;29;20118;-71
2023/01/26 00:55:11;;;;;;;0.00;0.00;;;;;;;1.84;100.00;101692.84;4924906;28;20039;-71
2023/01/26 00:57:37;;;;;;;0.00;0.00;;;;;;;2.00;100.00;101697.31;4913607;29;20035;-70
2023/01/26 01:00:05;;;;;;;0.00;0.00;;;;;;;2.34;100.00;101701.50;4951633;28;20382;-71
2023/01/26 01:02:30;;;;;;;0.00;0.00;;;;;;;2.53;100.00;101703.69;4944529;28;20027;-71
2023/01/26 01:04:55;;;;;;;0.10;0.10;;;;;;;2.68;100.00;101705.59;4912432;28;20050;-71
2023/01/26 01:07:21;;;;;;;0.00;0.00;;;;;;;2.71;100.00;101697.97;4956601;28;20039;-70
2023/01/26 01:09:46;;;;;;;0.10;0.10;;;;;;;2.72;100.00;101706.94;4941318;28;20066;-72
2023/01/26 01:12:12;;;;;;;0.00;0.00;;;;;;;2.72;100.00;101701.53;4940729;28;20027;-70
2023/01/26 01:14:37;;;;;;;0.10;0.10;;;;;;;2.59;100.00;101702.97;4949999;28;20047;-71
2023/01/26 01:17:02;;;;;;;0.00;0.00;;;;;;;2.50;100.00;101706.75;4922366;29;20042;-72
2023/01/26 01:19:28;;;;;;;0.00;0.00;;;;;;;2.49;100.00;101699.69;4932889;29;20041;-71
2023/01/26 01:21:53;;;;;;;0.00;0.00;;;;;;;2.48;100.00;101697.97;4911871;29;20499;-70
2023/01/26 01:24:19;;;;;;;0.10;0.10;;;;;;;2.54;100.00;101699.13;4950175;28;20130;-72
2023/01/26 01:26:44;;;;;;;0.10;0.10;;;;;;;2.49;100.00;101702.38;4944913;28;20034;-70
2023/01/26 01:29:12;;;;;;;0.10;0.10;;;;;;;2.41;100.00;101700.59;4913918;29;20031;-70
2023/01/26 01:31:38;;;;;;;0.10;0.10;;;;;;;2.31;100.00;101694.59;4951882;29;20035;-70
2023/01/26 01:34:03;;;;;;;0.10;0.10;;;;;;;2.18;100.00;101695.19;4929242;29;20505;-70
2023/01/26 01:36:30;;;;;;;0.00;0.00;;;;;;;2.14;100.00;101688.47;4932710;29;20037;-70
2023/01/26 01:38:56;;;;;;;0.00;0.00;;;;;;;2.16;100.00;101694.53;4927517;28;20041;-71
2023/01/26 01:41:22;;;;;;;0.00;0.00;;;;;;;2.15;100.00;101702.81;4947314;28;20047;-70
2023/01/26 01:43:48;;;;;;;0.00;0.00;;;;;;;2.12;100.00;101701.31;4931190;29;20090;-70
2023/01/26 01:46:35;;;;;;;0.00;0.00;;;;;;;2.09;100.00;101701.66;4915503;29;20023;-70
2023/01/26 01:49:13;;;;;;;0.05;0.05;;;;;;;2.03;100.00;101707.75;4946010;28;20032;-71
2023/01/26 01:51:44;;;;;;;0.10;0.10;;;;;;;1.96;100.00;101695.97;4944701;28;20067;-71
2023/01/26 01:54:20;;;;;;;0.10;0.10;;;;;;;1.94;100.00;101703.44;4923389;29;20107;-71
2023/01/26 01:56:51;;;;;;;0.10;0.10;;;;;;;1.91;100.00;101710.88;4949040;28;20054;-71
2023/01/26 01:59:19;;;;;;;0.10;0.10;;;;;;;1.84;100.00;101707.19;4932584;28;20078;-70
2023/01/26 02:01:46;;;;;;;0.00;0.00;;;;;;;1.95;100.00;101710.50;4935529;29;20486;-71
2023/01/26 02:04:13;;;;;;;0.00;0.00;;;;;;;1.92;100.00;101711.69;4930605;29;20038;-71
2023/01/26 02:06:49;;;;;;;0.00;0.00;;;;;;;1.85;100.00;101705.34;4915824;29;20062;-70
2023/01/26 02:12:04;;;;;;;0.10;0.10;;;;;;;1.72;100.00;101712.16;4933264;29;20500;-72
2023/01/26 02:14:32;;;;;;;0.00;0.00;;;;;;;1.69;100.00;101709.78;4949540;29;20795;-72
2023/01/26 02:16:57;;;;;;;0.00;0.00;;;;;;;1.61;100.00;101703.59;4928526;29;20066;-72
2023/01/26 02:19:45;;;;;;;0.00;0.00;;;;;;;1.55;100.00;101711.38;4932269;29;20482;-73
2023/01/26 02:22:20;;;;;;;0.10;0.10;;;;;;;1.47;100.00;101714.09;4925334;29;20035;-73
2023/01/26 02:24:48;;;;;;;0.00;0.00;;;;;;;1.37;100.00;101705.38;4934274;29;20053;-72
2023/01/26 02:27:13;;;;;;;0.10;0.10;;;;;;;1.27;100.00;101685.88;4945757;29;20051;-73
2023/01/26 02:29:41;;;;;;;0.08;0.08;;;;;;;1.42;100.00;101711.09;4933321;29;20074;-71
2023/01/26 02:32:06;;;;;;;0.10;0.10;;;;;;;1.36;100.00;101706.41;4927745;28;20830;-72
2023/01/26 02:34:32;;;;;;;0.00;0.00;;;;;;;1.34;100.00;101703.03;4918193;29;20129;-73
2023/01/26 02:36:58;;;;;;;0.00;0.00;;;;;;;1.40;100.00;101718.50;4933146;28;20053;-73
2023/01/26 02:39:40;;;;;;;0.00;0.00;;;;;;;1.37;100.00;101716.16;4934672;29;20035;-73
2023/01/26 02:44:50;;;;;;;0.00;0.00;;;;;;;1.38;100.00;101717.84;4929678;29;20087;-73
2023/01/26 02:47:17;;;;;;;0.00;0.00;;;;;;;1.40;100.00;101729.28;4913190;29;20453;-74
2023/01/26 02:49:46;;;;;;;0.10;0.10;;;;;;;1.45;100.00;101721.53;4909422;29;20105;-73
2023/01/26 02:52:13;;;;;;;0.10;0.10;;;;;;;1.55;100.00;101722.16;4925578;29;20028;-73
2023/01/26 02:57:23;;;;;;;0.10;0.10;;;;;;;1.59;100.00;101733.41;4916502;29;20043;-73
2023/01/26 02:59:48;;;;;;;0.00;0.00;;;;;;;1.55;100.00;101730.25;4893405;29;20035;-72
2023/01/26 03:02:14;;;;;;;0.00;0.00;;;;;;;1.53;100.00;101734.13;4919087;29;20027;-73
2023/01/26 03:04:41;;;;;;;0.00;0.00;;;;;;;1.50;100.00;101740.69;4901648;29;20020;-72
2023/01/26 03:07:06;;;;;;;0.00;0.00;;;;;;;1.44;100.00;101737.88;4909944;29;20063;-73
2023/01/26 03:09:31;;;;;;;0.00;0.00;;;;;;;1.41;100.00;101730.13;4909638;29;20443;-74
2023/01/26 03:11:57;;;;;;;0.15;0.10;;;;;;;1.35;100.00;101737.06;4928449;29;20110;-74
2023/01/26 03:14:22;;;;;;;0.10;0.10;;;;;;;1.29;100.00;101727.81;4929868;29;20050;-74
2023/01/26 03:16:48;;;;;;;0.00;0.00;;;;;;;1.27;100.00;101731.69;4880511;29;20048;-72
2023/01/26 03:27:26;;;;;;;0.10;0.10;;;;;;;1.37;100.00;101735.00;4926249;29;20853;-73
2023/01/26 03:29:55;;;;;;;0.00;0.00;;;;;;;1.38;100.00;101731.31;4911140;29;20083;-72
2023/01/26 03:32:21;;;;;;;0.10;0.10;;;;;;;1.35;100.00;101732.50;4931427;29;20055;-71
2023/01/26 03:34:46;;;;;;;0.00;0.00;;;;;;;1.36;100.00;101741.44;4906298;29;20051;-72
2023/01/26 03:37:12;;;;;;;0.00;0.00;;;;;;;1.35;100.00;101737.06;4933781;29;20028;-73
2023/01/26 03:56:31;;;;;;;0.10;0.10;;;;;;;1.69;100.00;101770.97;4931190;29;20039;-75
2023/01/26 03:59:08;;;;;;;0.00;0.00;;;;;;;1.74;100.00;101764.06;4934048;29;20035;-74
2023/01/26 04:01:38;;;;;;;0.00;0.00;;;;;;;1.85;100.00;101770.91;4931594;29;20024;-76
2023/01/26 04:09:35;;;;;;;0.00;0.00;;;;;;;2.20;100.00;101757.91;4930238;29;20046;-75
2023/01/26 04:12:02;;;;;;;0.00;0.00;;;;;;;2.23;100.00;101754.88;4919416;29;20030;-75
2023/01/26 04:22:46;;;;;;;0.00;0.00;;;;;;;2.25;100.00;101769.03;4905033;29;20382;-74
2023/01/26 04:25:20;;;;;;;0.00;0.00;;;;;;;2.19;100.00;101756.25;4912162;29;20282;-74
2023/01/26 04:27:46;;;;;;;0.10;0.10;;;;;;;2.04;100.00;101755.31;4916996;29;20042;-73
2023/01/26 04:30:14;;;;;;;0.00;0.00;;;;;;;1.94;100.00;101762.78;4893879;29;20043;-76
2023/01/26 04:32:40;;;;;;;0.10;0.10;;;;;;;1.82;100.00;101762.34;4925303;29;20107;-74
2023/01/26 04:35:07;;;;;;;0.00;0.00;;;;;;;1.77;100.00;101757.47;4900713;29;20060;-74
2023/01/26 04:37:33;;;;;;;0.10;0.10;;;;;;;1.63;100.00;101745.53;4931251;29;20039;-74
2023/01/26 04:39:59;;;;;;;0.00;0.00;;;;;;;1.59;100.00;101768.47;4933230;29;20071;-74
2023/01/26 04:42:24;;;;;;;0.00;0.00;;;;;;;1.54;100.00;101758.22;4895203;29;20047;-73
2023/01/26 04:44:53;;;;;;;0.00;0.00;;;;;;;1.50;100.00;101762.25;4912310;29;20114;-74
2023/01/26 04:47:20;;;;;;;0.00;0.00;;;;;;;1.53;100.00;101777.25;4925164;29;20119;-73
2023/01/26 04:49:45;;;;;;;0.00;0.00;;;;;;;1.45;100.00;101764.66;4929842;29;20038;-74
2023/01/26 04:52:12;;;;;;;0.10;0.10;;;;;;;1.45;100.00;101770.03;4891408;29;20028;-74
2023/01/26 04:54:37;;;;;;;0.00;0.00;;;;;;;1.35;100.00;101764.00;4916593;29;20038;-74
2023/01/26 04:57:03;;;;;;;0.00;0.00;;;;;;;1.33;100.00;101776.78;4914210;29;20389;-74
2023/01/26 04:59:29;;;;;;;0.10;0.10;;;;;;;1.27;100.00;101772.09;4911859;29;20115;-74
2023/01/26 05:01:55;;;;;;;0.00;0.00;;;;;;;1.26;100.00;101781.22;4914314;29;20118;-75
2023/01/26 05:04:20;;;;;;;0.00;0.00;;;;;;;1.18;100.00;101791.00;4925581;29;20111;-74
2023/01/26 05:06:46;;;;;;;0.00;0.00;;;;;;;1.16;100.00;101771.44;4892477;29;20103;-74
2023/01/26 05:09:11;;;;;;;0.00;0.00;;;;;;;1.18;100.00;101777.53;4914970;29;20028;-74
2023/01/26 05:11:37;;;;;;;0.00;0.00;;;;;;;1.12;100.00;101766.56;4915488;29;20043;-75
2023/01/26 05:14:02;;;;;;;0.00;0.00;;;;;;;1.04;100.00;101775.53;4919858;29;20020;-75
2023/01/26 05:16:28;;;;;;;0.00;0.00;;;;;;;1.01;100.00;101775.88;4927851;29;20028;-75
2023/01/26 05:18:54;;;;;;;0.00;0.00;;;;;;;0.90;100.00;101765.41;4910489;29;20024;-74
2023/01/26 05:21:23;;;;;;;0.10;0.10;;;;;;;0.86;100.00;101778.38;4895886;29;20027;-74
2023/01/26 05:23:49;;;;;;;0.00;0.00;;;;;;;0.79;100.00;101763.88;4905842;29;20047;-75
2023/01/26 05:26:14;;;;;;;0.00;0.00;;;;;;;0.84;100.00;101773.16;4924081;29;20031;-75
2023/01/26 05:28:40;;;;;;;0.00;0.00;;;;;;;0.77;100.00;101772.13;4908766;29;20043;-73
2023/01/26 05:31:05;;;;;;;0.10;0.10;;;;;;;0.77;100.00;101769.44;4894328;29;20032;-75
2023/01/26 05:33:31;;;;;;;0.00;0.00;;;;;;;0.80;100.00;101771.78;4913746;29;20382;-76
2023/01/26 05:35:57;;;;;;;0.00;0.00;;;;;;;0.89;100.00;101774.50;4932595;29;20028;-75
2023/01/26 05:38:23;;;;;;;0.00;0.00;;;;;;;0.85;100.00;101769.47;4888201;29;20055;-74
2023/01/26 05:40:48;;;;;;;0.10;0.10;;;;;;;0.85;100.00;101769.47;4910266;29;20127;-74
2023/01/26 05:43:14;;;;;;;0.00;0.00;;;;;;;0.96;100.00;101772.81;4910469;29;20058;-74
2023/01/26 05:45:39;;;;;;;0.00;0.00;;;;;;;1.06;100.00;101765.41;4930562;29;20059;-74
2023/01/26 05:48:05;;;;;;;0.10;0.10;;;;;;;1.08;100.00;101767.91;4934498;29;20031;-73
2023/01/26 05:50:31;;;;;;;0.00;0.00;;;;;;;1.02;100.00;101762.22;4928014;29;20389;-74
2023/01/26 05:52:59;;;;;;;0.00;0.00;;;;;;;0.95;100.00;101760.34;4934122;29;20034;-74
2023/01/26 05:55:24;;;;;;;0.00;0.00;;;;;;;0.97;100.00;101761.03;4933011;29;20520;-72
2023/01/26 05:57:50;;;;;;;0.10;0.10;;;;;;;1.04;100.00;101772.81;4944821;29;20114;-71
2023/01/26 06:00:16;;;;;;;0.00;0.00;;;;;;;1.01;100.00;101767.78;4926423;29;20039;-71
2023/01/26 06:02:41;;;;;;;0.00;0.00;;;;;;;1.04;100.00;101783.59;4917130;29;20195;-73
2023/01/26 06:05:07;;;;;;;0.10;0.10;;;;;;;1.03;100.00;101787.28;4932126;29;20020;-72
2023/01/26 06:07:33;;;;;;;0.00;0.00;;;;;;;1.00;100.00;101782.25;4914393;29;20047;-72
2023/01/26 06:09:59;;;;;;;0.00;0.00;;;;;;;0.97;100.00;101787.97;4951912;29;20031;-73
2023/01/26 06:12:24;;;;;;;0.00;0.00;;;;;;;0.98;100.00;101789.63;4916862;29;20026;-73
2023/01/26 06:14:50;;;;;;;0.00;0.00;;;;;;;1.04;100.00;101800.59;4924878;29;20039;-72
2023/01/26 06:17:16;;;;;;;0.10;0.10;;;;;;;1.10;100.00;101799.06;4929457;29;20094;-72
2023/01/26 06:19:42;;;;;;;0.10;0.10;;;;;;;1.10;100.00;101792.84;4942979;28;20162;-74
2023/01/26 06:22:09;;;;;;;0.20;0.20;;;;;;;1.21;100.00;101796.03;4919482;29;20063;-73
2023/01/26 06:24:35;;;;;;;0.40;0.40;;;;;;;1.21;100.00;101789.78;4930327;29;20041;-73
2023/01/26 06:27:01;;;;;;;0.10;0.10;;;;;;;1.20;100.00;101805.13;4951323;28;20035;-74
2023/01/26 06:29:26;;;;;;;0.00;0.00;;;;;;;1.15;100.00;101802.09;4946352;28;20398;-71
2023/01/26 06:31:52;;;;;;;0.10;0.10;;;;;;;1.19;100.00;101808.00;4914064;29;20266;-75
2023/01/26 06:34:18;;;;;;;0.20;0.20;;;;;;;1.14;100.00;101802.25;4927328;29;20039;-73
2023/01/26 06:36:44;;;;;;;0.40;0.40;;;;;;;1.24;100.00;101807.47;4914937;29;20117;-73
2023/01/26 06:39:11;;;;;;;1.40;1.40;;;;;;;1.28;100.00;101811.53;4915063;29;20059;-73
2023/01/26 06:41:36;;;;;;;1.10;1.10;;;;;;;1.21;100.00;101820.28;4929468;29;20063;-72
2023/01/26 06:44:02;;;;;;;0.50;0.50;;;;;;;1.12;100.00;101813.22;4910969;29;20031;-72
2023/01/26 06:46:27;;;;;;;0.40;0.40;;;;;;;1.07;100.00;101812.88;4931269;29;20744;-74
2023/01/26 06:48:52;;;;;;;0.20;0.20;;;;;;;1.12;100.00;101824.00;4908995;29;20034;-72
2023/01/26 06:51:18;;;;;;;0.20;0.20;;;;;;;1.14;100.00;101834.59;4946219;29;20582;-72
2023/01/26 06:54:01;;;;;;;0.20;0.20;;;;;;;1.10;100.00;101831.41;4930249;28;20065;-72
2023/01/26 06:56:27;;;;;;;0.20;0.20;;;;;;;1.03;100.00;101830.41;4940226;29;20090;-72
2023/01/26 06:58:53;;;;;;;0.10;0.10;;;;;;;0.89;100.00;101828.38;4926736;29;20393;-71
2023/01/26 07:01:21;;;;;;;0.20;0.20;;;;;;;0.90;100.00;101825.50;4942762;29;20027;-72
2023/01/26 07:03:47;;;;;;;0.10;0.10;;;;;;;0.79;100.00;101824.00;4928285;29;20035;-70
2023/01/26 07:06:13;;;;;;;0.10;0.10;;;;;;;0.77;100.00;101838.63;4941200;28;20023;-71
2023/01/26 07:08:39;;;;;;;0.10;0.10;;;;;;;0.72;100.00;101844.53;4913579;29;20114;-73
2023/01/26 07:11:06;;;;;;;0.10;0.10;;;;;;;0.67;100.00;101836.09;4924957;29;20874;-73
2023/01/26 07:13:33;;;;;;;0.10;0.10;;;;;;;0.73;100.00;101842.66;4916980;28;20038;-72
2023/01/26 07:16:04;;;;;;;0.10;0.10;;;;;;;0.88;100.00;101849.09;4896952;29;20176;-74
2023/01/26 07:18:30;;;;;;;0.10;0.10;;;;;;;1.12;100.00;101850.94;4926592;29;20031;-73
2023/01/26 07:21:21;;;;;;;0.10;0.10;;;;;;;1.27;100.00;101869.13;4906670;29;21003;-73
2023/01/26 07:23:47;;;;;;;0.10;0.10;;;;;;;1.41;100.00;101873.84;4921336;29;20374;-72
2023/01/26 07:26:13;;;;;;;0.10;0.10;;;;;;;1.52;100.00;101869.94;4949984;28;20032;-74
2023/01/26 07:28:39;;;;;;;0.10;0.10;;;;;;;1.71;100.00;101861.50;4944791;29;20381;-73
2023/01/26 07:31:06;;;;;;;0.10;0.10;;;;;;;1.67;100.00;101853.91;4950910;28;20031;-72
2023/01/26 07:33:32;;;;;;;0.10;0.10;;;;;;;1.79;100.00;101862.50;4925937;29;20031;-72
2023/01/26 07:35:59;;;;;;;0.00;0.00;;;;;;;1.78;100.00;101867.03;4952101;29;20032;-73
2023/01/26 07:38:25;;;;;;;0.10;0.10;;;;;;;1.71;100.00;101860.66;4945814;28;20473;-72
2023/01/26 07:40:51;;;;;;;0.00;0.00;;;;;;;1.72;100.00;101865.03;4919111;29;20387;-75
2023/01/26 07:43:17;;;;;;;0.10;0.10;;;;;;;1.60;100.00;101872.63;4933799;29;20035;-72
2023/01/26 07:45:50;;;;;;;0.10;0.10;;;;;;;1.68;100.00;101882.56;4922000;29;20031;-73
2023/01/26 07:48:17;;;;;;;0.10;0.10;;;;;;;1.72;100.00;101887.47;4948658;29;20027;-72
2023/01/26 07:50:44;;;;;;;0.00;0.00;;;;;;;1.72;100.00;101889.28;4924253;29;20681;-73
2023/01/26 07:53:11;;;;;;;0.00;0.00;;;;;;;1.65;100.00;101891.00;4946680;29;20365;-73
2023/01/26 07:55:37;;;;;;;0.00;0.00;;;;;;;1.66;100.00;101884.59;4943611;28;20038;-75
2023/01/26 07:58:03;;;;;;;0.10;0.10;;;;;;;1.77;100.00;101870.75;4944277;29;20032;-75
2023/01/26 08:00:28;;;;;;;0.00;0.00;;;;;;;1.70;100.00;101865.19;4917367;29;20054;-77
2023/01/26 08:02:54;;;;;;;0.00;0.00;;;;;;;1.56;100.00;101879.38;4924789;29;20057;-77
2023/01/26 08:05:22;;;;;;;0.00;0.00;;;;;;;1.42;100.00;101880.91;4928962;29;20473;-76
2023/01/26 08:07:48;;;;;;;0.00;0.00;;;;;;;1.39;100.00;101884.78;4911943;29;20114;-76
2023/01/26 08:10:13;;;;;;;0.00;0.00;;;;;;;1.56;100.00;101884.78;4905499;29;20126;-75
2023/01/26 08:12:41;;;;;;;0.00;0.00;;;;;;;1.72;100.00;101873.13;4907315;29;20109;-75
2023/01/26 08:15:07;;;;;;;0.00;0.00;;;;;;;1.92;100.00;101879.81;4932543;29;20434;-75
2023/01/26 08:17:41;;;;;;;0.00;0.00;;;;;;;1.95;100.00;101883.19;4921636;29;20134;-74
2023/01/26 08:20:07;;;;;;;0.05;0.05;;;;;;;2.03;100.00;101891.25;4949194;29;20114;-76
2023/01/26 08:22:32;;;;;;;0.00;0.00;;;;;;;1.74;100.00;101877.34;4952694;29;20082;-74
2023/01/26 08:24:58;;;;;;;0.10;0.10;;;;;;;1.68;100.00;101888.81;4931244;29;20051;-75
2023/01/26 08:27:23;;;;;;;0.10;0.10;;;;;;;1.84;100.00;101903.25;4919228;29;20544;-76
2023/01/26 08:29:50;;;;;;;0.00;0.00;;;;;;;2.14;100.00;101901.66;4912109;29;20031;-74
2023/01/26 08:32:15;;;;;;;0.00;0.00;;;;;;;2.47;100.00;101893.44;4927524;29;20035;-75
2023/01/26 08:34:41;;;;;;;0.00;0.00;;;;;;;2.72;100.00;101877.09;4920129;29;20152;-74
2023/01/26 08:37:09;;;;;;;0.10;0.10;;;;;;;2.96;100.00;101884.19;4934330;29;20031;-76
2023/01/26 08:39:34;;;;;;;0.00;0.00;;;;;;;3.16;100.00;101903.47;4915964;29;20031;-74
2023/01/26 08:42:02;;;;;;;0.00;0.00;;;;;;;3.16;100.00;101895.38;4936571;28;20062;-74
2023/01/26 08:44:30;;;;;;;0.00;0.00;;;;;;;3.17;100.00;101883.53;4914881;29;20043;-75
2023/01/26 08:46:55;;;;;;;0.10;0.10;;;;;;;3.20;100.00;101883.19;4895940;29;20027;-74
2023/01/26 08:49:20;;;;;;;0.10;0.10;;;;;;;3.21;100.00;101887.53;4905174;29;20050;-74
2023/01/26 08:51:46;;;;;;;0.10;0.10;;;;;;;3.28;100.00;101896.63;4897109;29;20113;-74
2023/01/26 08:54:11;;;;;;;0.00;0.00;;;;;;;3.39;100.00;101897.19;4899899;29;20380;-74
2023/01/26 08:56:37;;;;;;;0.10;0.10;;;;;;;3.49;100.00;101904.06;4900009;29;20040;-74
2023/01/26 08:59:02;;;;;;;0.10;0.10;;;;;;;3.54;100.00;101894.56;4915925;29;20099;-74
2023/01/26 09:01:27;;;;;;;0.00;0.00;;;;;;;3.64;100.00;101903.25;4907323;29;20039;-73
2023/01/26 09:03:55;;;;;;;0.00;0.00;;;;;;;3.66;100.00;101893.06;4899141;29;20771;-75
2023/01/26 09:06:24;;;;;;;0.10;0.10;;;;;;;3.92;100.00;101898.06;4914837;29;20030;-75
2023/01/26 09:08:49;;;;;;;0.10;0.10;;;;;;;4.20;100.00;101897.41;4896160;29;20442;-74
2023/01/26 09:11:15;;;;;;;0.00;0.00;;;;;;;4.34;100.00;101880.31;4896377;29;20028;-76
2023/01/26 09:13:41;;;;;;;0.10;0.10;;;;;;;4.19;100.00;101890.28;4899263;29;20042;-74
2023/01/26 09:16:21;;;;;;;0.00;0.00;;;;;;;4.05;100.00;101907.41;4910641;29;20035;-74
2023/01/26 09:18:53;;;;;;;0.00;0.00;;;;;;;4.30;100.00;101905.25;4931665;29;20082;-74
2023/01/26 09:21:19;;;;;;;0.00;0.00;;;;;;;4.70;100.00;101906.59;4928451;29;20047;-74
2023/01/26 09:23:45;;;;;;;0.00;0.00;;;;;;;6.58;100.00;101900.75;4913927;29;20049;-74
2023/01/26 09:26:10;;;;;;;0.10;0.10;;;;;;;10.67;100.00;101910.72;4931188;29;20032;-75
2023/01/26 09:28:36;;;;;;;0.00;0.00;;;;;;;13.59;100.00;101925.75;4894592;29;20043;-73
2023/01/26 09:31:04;;;;;;;0.03;0.03;;;;;;;15.10;100.00;101938.50;4934128;29;20034;-74
2023/01/26 09:33:31;;;;;;;0.00;0.00;;;;;;;16.30;100.00;101940.06;4912115;29;20036;-74
2023/01/26 09:36:15;;;;;;;1.40;1.40;;;;;;;17.30;100.00;101960.31;4932846;29;20055;-75
2023/01/26 09:39:14;;;;;;;2.00;1.90;;;;;;;17.68;100.00;101940.69;4908328;29;20040;-75
2023/01/26 09:42:06;;;;;;;0.20;0.20;;;;;;;18.88;100.00;101952.06;4923517;29;20780;-74
2023/01/26 09:44:49;;;;;;;0.30;0.30;;;;;;;19.35;100.00;101944.28;4932182;29;20141;-74
2023/01/26 09:47:35;;;;;;;1.88;1.73;;;;;;;17.66;100.00;101959.53;4920966;29;20137;-74
2023/01/26 09:50:22;;;;;;;0.80;0.80;;;;;;;15.38;100.00;101956.72;4932669;29;20024;-75
2023/01/26 09:52:58;;;;;;;0.80;0.80;;;;;;;14.51;100.00;101941.94;4932117;29;20027;-75
2023/01/26 09:55:30;;;;;;;0.30;0.30;;;;;;;16.75;100.00;101951.59;4931426;29;20027;-74
2023/01/26 09:58:36;;;;;;;0.15;0.15;;;;;;;19.47;100.00;101946.69;4951409;29;20070;-74
2023/01/26 10:01:05;;;;;;;0.40;0.40;;;;;;;21.12;100.00;101945.72;4924455;29;20123;-74
2023/01/26 10:03:45;;;;;;;0.13;0.13;;;;;;;21.86;100.00;101944.25;4926973;29;20023;-74
2023/01/26 10:06:27;;;;;;;0.10;0.10;;;;;;;22.78;100.00;101934.09;4927532;29;20032;-73
2023/01/26 10:08:54;;;;;;;0.20;0.20;;;;;;;23.26;100.00;101909.59;4935699;29;20031;-74
2023/01/26 10:11:37;;;;;;;0.15;0.15;;;;;;;23.57;100.00;101909.66;4929585;29;20046;-74
2023/01/26 10:14:13;;;;;;;0.03;0.03;;;;;;;24.28;99.49;101927.63;4944678;29;20102;-74
2023/01/26 10:16:39;;;;;;;0.10;0.10;;;;;;;24.12;96.18;101925.25;4947413;29;20026;-73
2023/01/26 10:19:33;;;;;;;0.55;0.20;;;;;;;24.44;91.29;101942.78;4922037;29;20032;-73
2023/01/26 10:22:06;;;;;;;0.10;0.10;;;;;;;23.91;90.67;101929.75;4924062;29;20370;-74
2023/01/26 10:24:33;;;;;;;0.10;0.10;;;;;;;24.67;90.78;101951.94;4945850;29;20035;-75
2023/01/26 10:27:00;;;;;;;0.20;0.20;;;;;;;24.33;84.34;101952.63;4952074;29;20064;-74
2023/01/26 10:29:25;;;;;;;0.10;0.10;;;;;;;24.27;91.76;101954.75;4915537;29;20039;-75
2023/01/26 10:31:50;;;;;;;0.03;0.03;;;;;;;25.48;86.17;101946.06;4923055;29;20477;-73
2023/01/26 10:34:22;;;;;;;0.00;0.00;;;;;;;25.83;85.34;101952.47;4911758;29;20031;-72
2023/01/26 10:36:48;;;;;;;0.00;0.00;;;;;;;25.42;78.28;101960.25;4945323;29;20055;-73
2023/01/26 10:39:15;;;;;;;0.10;0.10;;;;;;;21.55;81.80;101953.16;4913798;29;20497;-73
2023/01/26 10:41:58;;;;;;;0.10;0.10;;;;;;;19.31;93.09;101949.56;4909857;29;20115;-73
2023/01/26 10:44:36;;;;;;;0.10;0.10;;;;;;;17.72;100.00;101953.69;4929068;29;20035;-73
2023/01/26 10:47:16;;;;;;;0.00;0.00;;;;;;;16.51;100.00;101949.25;4911795;29;20055;-79
2023/01/26 10:49:41;;;;;;;0.10;0.10;;;;;;;16.01;100.00;101936.84;4939450;29;20041;-73
2023/01/26 10:52:21;;;;;;;0.00;0.00;;;;;;;19.77;100.00;101939.22;4947014;29;20027;-75
2023/01/26 10:55:25;;;;;;;0.00;0.00;;;;;;;21.26;89.00;101948.56;4933324;29;20079;-73
2023/01/26 10:57:51;;;;;;;0.10;0.10;;;;;;;18.90;93.79;101944.28;4912367;29;20068;-73
2023/01/26 11:00:30;;;;;;;0.10;0.10;;;;;;;17.17;97.65;101949.78;4932650;29;20097;-73
2023/01/26 11:03:11;;;;;;;0.10;0.10;;;;;;;15.31;100.00;101939.56;4932619;29;20023;-73
2023/01/26 11:05:36;;;;;;;0.00;0.00;;;;;;;13.86;100.00;101941.59;4923564;29;20067;-73
2023/01/26 11:08:05;;;;;;;0.00;0.00;;;;;;;12.59;100.00;101939.81;4924563;29;20061;-73
2023/01/26 11:10:39;;;;;;;0.10;0.10;;;;;;;12.12;100.00;101928.91;4927664;29;20035;-75
2023/01/26 11:13:18;;;;;;;0.10;0.10;;;;;;;12.74;100.00;101947.53;4928893;29;20038;-73
2023/01/26 11:16:21;;;;;;;0.00;0.00;;;;;;;15.07;100.00;101939.88;4926795;29;20023;-74
2023/01/26 11:19:02;;;;;;;0.10;0.10;;;;;;;15.37;100.00;101944.03;4942196;29;20027;-73
2023/01/26 11:21:30;;;;;;;0.00;0.00;;;;;;;17.97;100.00;101949.28;4920008;29;20027;-73
2023/01/26 11:24:11;;;;;;;0.00;0.00;;;;;;;19.43;100.00;101945.59;4927628;29;20067;-73
2023/01/26 11:27:11;;;;;;;0.00;0.00;;;;;;;22.90;92.65;101943.91;4923911;29;20078;-73
2023/01/26 11:30:05;;;;;;;0.00;0.00;;;;;;;21.13;86.50;101943.75;4947176;29;20120;-72
2023/01/26 11:33:04;;;;;;;0.10;0.10;;;;;;;18.73;96.85;101938.25;4937361;28;20583;-72
2023/01/26 11:35:32;;;;;;;0.10;0.10;;;;;;;20.25;100.00;101950.41;4918864;29;20035;-73
2023/01/26 11:38:08;;;;;;;0.10;0.10;;;;;;;23.12;96.90;101949.53;4947094;28;20039;-72
2023/01/26 11:40:47;;;;;;;0.00;0.00;;;;;;;22.92;87.57;101944.41;4939057;28;20481;-73
2023/01/26 11:43:21;;;;;;;0.00;0.00;;;;;;;22.75;92.93;101934.72;4933293;29;20047;-73
2023/01/26 11:46:15;;;;;;;0.00;0.00;;;;;;;21.77;88.56;101953.34;4922957;28;20027;-71
2023/01/26 11:49:05;;;;;;;0.00;0.00;;;;;;;18.70;93.45;101947.13;4935421;28;20035;-75
2023/01/26 11:51:54;;;;;;;0.10;0.10;;;;;;;15.79;97.04;101940.56;4946561;28;20039;-74
2023/01/26 11:54:34;;;;;;;0.03;0.03;;;;;;;14.82;100.00;101932.16;4931634;29;20732;-75
2023/01/26 11:57:34;;;;;;;0.10;0.10;;;;;;;15.93;100.00;101934.56;4926297;29;20098;-72
2023/01/26 12:00:02;;;;;;;0.10;0.10;;;;;;;15.56;100.00;101918.84;4934421;29;20038;-71
2023/01/26 12:02:28;;;;;;;0.00;0.00;;;;;;;15.07;100.00;101934.38;4931671;28;20122;-75
2023/01/26 12:04:56;;;;;;;0.00;0.00;;;;;;;14.31;100.00;101915.84;4942587;29;20903;-73
2023/01/26 12:07:53;;;;;;;0.00;0.00;;;;;;;13.81;100.00;101922.25;4946522;29;20184;-75
2023/01/26 12:10:38;;;;;;;0.00;0.00;;;;;;;14.46;100.00;101918.78;4920707;29;20063;-74
2023/01/26 12:13:09;;;;;;;0.03;0.03;;;;;;;16.93;100.00;101931.75;4930532;29;20428;-73
2023/01/26 12:15:38;;;;;;;0.10;0.10;;;;;;;18.16;100.00;101923.78;4929738;28;20070;-72
2023/01/26 12:18:10;;;;;;;0.00;0.00;;;;;;;16.74;100.00;101917.59;4959724;28;20031;-72
2023/01/26 12:20:44;;;;;;;0.10;0.10;;;;;;;16.65;100.00;101926.69;4925827;29;20027;-73
2023/01/26 12:23:20;;;;;;;;;;;;;;;17.67;100.00;101917.75;4947443;29;20098;-74